N35647 KCLT-KMEB
Flight info
| Callsign | N35647 |
|---|---|
| Flight time | 0h 23m |
| Altitude | 7000 |
| Route | KNI3 LILLS |
| Aircraft | C208/L-SDFGR/C |
Departure
| Time | 2026-05-04 05:31 |
|---|---|
| Airport | Charlotte Douglas International Airport (KCLT) |
Arrival
| Time | 2026-05-04 05:54 |
|---|---|
| Airport | Laurinburg Maxton Airport (KMEB) |
| Time | Latitude | Longitude | Altitude | Speed | Heading |
|---|---|---|---|---|---|
| 2026-05-04 05:29 | 35.01606 | -80.76375 | 7116 ft | 188 kts | 68° |
| 2026-05-04 05:31 | 35.04840 | -80.65871 | 7025 ft | 191 kts | 68° |
| 2026-05-04 05:31 | 35.05304 | -80.64378 | 7025 ft | 190 kts | 67° |
| 2026-05-04 05:32 | 35.05772 | -80.62871 | 7025 ft | 189 kts | 68° |
| 2026-05-04 05:32 | 35.06239 | -80.61371 | 7018 ft | 189 kts | 67° |
| 2026-05-04 05:32 | 35.06705 | -80.59871 | 7018 ft | 189 kts | 68° |
| 2026-05-04 05:33 | 35.07632 | -80.56894 | 7016 ft | 189 kts | 68° |
| 2026-05-04 05:33 | 35.08100 | -80.55397 | 7017 ft | 189 kts | 68° |
| 2026-05-04 05:33 | 35.08568 | -80.53900 | 7017 ft | 189 kts | 67° |
| 2026-05-04 05:33 | 35.09032 | -80.52403 | 7015 ft | 188 kts | 68° |
| 2026-05-04 05:34 | 35.09482 | -80.50903 | 7017 ft | 188 kts | 72° |
| 2026-05-04 05:34 | 35.09649 | -80.49312 | 7019 ft | 190 kts | 92° |
| 2026-05-04 05:34 | 35.09363 | -80.47737 | 7019 ft | 191 kts | 109° |
| 2026-05-04 05:34 | 35.08893 | -80.46222 | 7017 ft | 191 kts | 112° |
| 2026-05-04 05:35 | 35.08432 | -80.44701 | 7018 ft | 191 kts | 110° |
| 2026-05-04 05:35 | 35.07998 | -80.43192 | 7015 ft | 191 kts | 110° |
| 2026-05-04 05:35 | 35.07564 | -80.41658 | 7015 ft | 191 kts | 110° |
| 2026-05-04 05:35 | 35.07127 | -80.40126 | 7017 ft | 190 kts | 110° |
| 2026-05-04 05:36 | 35.06690 | -80.38597 | 7018 ft | 191 kts | 110° |
| 2026-05-04 05:36 | 35.06252 | -80.37067 | 7018 ft | 190 kts | 110° |
| 2026-05-04 05:36 | 35.05821 | -80.35539 | 7020 ft | 190 kts | 109° |
| 2026-05-04 05:36 | 35.05403 | -80.34002 | 7024 ft | 190 kts | 109° |
| 2026-05-04 05:37 | 35.05005 | -80.32479 | 7022 ft | 190 kts | 108° |
| 2026-05-04 05:37 | 35.04618 | -80.30933 | 7020 ft | 190 kts | 107° |
| 2026-05-04 05:37 | 35.04245 | -80.29382 | 7020 ft | 190 kts | 106° |
| 2026-05-04 05:38 | 35.03545 | -80.26263 | 7025 ft | 190 kts | 105° |
| 2026-05-04 05:38 | 35.03218 | -80.24697 | 7026 ft | 190 kts | 104° |
| 2026-05-04 05:38 | 35.02907 | -80.23126 | 7025 ft | 190 kts | 103° |
| 2026-05-04 05:38 | 35.02610 | -80.21550 | 7026 ft | 191 kts | 103° |
| 2026-05-04 05:39 | 35.02332 | -80.19985 | 7027 ft | 190 kts | 102° |
| 2026-05-04 05:39 | 35.00867 | -80.17393 | 7021 ft | 189 kts | 133° |
| 2026-05-04 05:39 | 35.00172 | -80.16030 | 7007 ft | 191 kts | 114° |
| 2026-05-04 05:40 | 34.99322 | -80.12960 | 7011 ft | 191 kts | 109° |
| 2026-05-04 05:40 | 34.98888 | -80.11428 | 7012 ft | 191 kts | 110° |
| 2026-05-04 05:40 | 34.98444 | -80.09897 | 7012 ft | 191 kts | 110° |
| 2026-05-04 05:41 | 34.98000 | -80.08369 | 7013 ft | 191 kts | 110° |
| 2026-05-04 05:41 | 34.97558 | -80.06839 | 7010 ft | 191 kts | 110° |
| 2026-05-04 05:41 | 34.97115 | -80.05308 | 7011 ft | 191 kts | 110° |
| 2026-05-04 05:41 | 34.96673 | -80.03780 | 7012 ft | 191 kts | 110° |
| 2026-05-04 05:42 | 34.96236 | -80.02270 | 7014 ft | 191 kts | 110° |
| 2026-05-04 05:42 | 34.95792 | -80.00741 | 7016 ft | 191 kts | 110° |
| 2026-05-04 05:42 | 34.95350 | -79.99213 | 7015 ft | 191 kts | 110° |
| 2026-05-04 05:42 | 34.94905 | -79.97680 | 7014 ft | 191 kts | 110° |
| 2026-05-04 05:43 | 34.94461 | -79.96150 | 7014 ft | 191 kts | 110° |
| 2026-05-04 05:43 | 34.94016 | -79.94619 | 7013 ft | 191 kts | 110° |
| 2026-05-04 05:43 | 34.93579 | -79.93113 | 7013 ft | 191 kts | 110° |
| 2026-05-04 05:45 | 34.91073 | -79.82192 | 7035 ft | 191 kts | 106° |
| 2026-05-04 05:45 | 34.90715 | -79.80630 | 7035 ft | 191 kts | 106° |
| 2026-05-04 05:47 | 34.88174 | -79.69598 | 6274 ft | 197 kts | 107° |
| 2026-05-04 05:47 | 34.87803 | -79.67991 | 5892 ft | 197 kts | 107° |
| 2026-05-04 05:47 | 34.87326 | -79.66435 | 5541 ft | 195 kts | 118° |
| 2026-05-04 05:48 | 34.86739 | -79.64945 | 5189 ft | 195 kts | 119° |
| 2026-05-04 05:48 | 34.86154 | -79.63454 | 4840 ft | 194 kts | 119° |
| 2026-05-04 05:48 | 34.85586 | -79.61987 | 4484 ft | 194 kts | 119° |
| 2026-05-04 05:48 | 34.84970 | -79.60540 | 4155 ft | 190 kts | 128° |
| 2026-05-04 05:49 | 34.84211 | -79.59231 | 3810 ft | 188 kts | 131° |
| 2026-05-04 05:49 | 34.83443 | -79.57947 | 3464 ft | 187 kts | 131° |
| 2026-05-04 05:49 | 34.82680 | -79.56671 | 3113 ft | 186 kts | 131° |
| 2026-05-04 05:49 | 34.81924 | -79.55400 | 2765 ft | 185 kts | 131° |
| 2026-05-04 05:51 | 34.77310 | -79.47509 | 2641 ft | 158 kts | 131° |
| 2026-05-04 05:51 | 34.76699 | -79.46403 | 2629 ft | 154 kts | 127° |
| 2026-05-04 05:52 | 34.76203 | -79.45253 | 2389 ft | 154 kts | 120° |
| 2026-05-04 05:52 | 34.75810 | -79.44078 | 2049 ft | 146 kts | 115° |
| 2026-05-04 05:52 | 34.75593 | -79.42929 | 1759 ft | 131 kts | 99° |
| 2026-05-04 05:52 | 34.75718 | -79.41857 | 1392 ft | 126 kts | 76° |
| 2026-05-04 05:53 | 34.76064 | -79.40950 | 1236 ft | 116 kts | 59° |
| 2026-05-04 05:54 | 34.79356 | -79.36798 | 231 ft | 40 kts | 47° |
| 2026-05-04 05:55 | 34.79532 | -79.36578 | 230 ft | 35 kts | 45° |
| 2026-05-04 05:55 | 34.79666 | -79.36443 | 228 ft | 13 kts | 356° |
| 2026-05-04 05:55 | 34.79728 | -79.36497 | 227 ft | 0 kts | 317° |
| 2026-05-04 05:55 | 34.79734 | -79.36505 | 227 ft | 0 kts | 316° |
| 2026-05-04 05:58 | 34.79738 | -79.36511 | 227 ft | 4 kts | 306° |
| 2026-05-04 05:59 | 34.79736 | -79.36558 | 227 ft | 7 kts | 230° |
| 2026-05-04 05:59 | 34.79699 | -79.36606 | 228 ft | 8 kts | 231° |
| 2026-05-04 05:59 | 34.79658 | -79.36661 | 228 ft | 9 kts | 226° |
| 2026-05-04 05:59 | 34.79651 | -79.36669 | 228 ft | 0 kts | 225° |
| 2026-05-04 06:00 | 34.79648 | -79.36673 | 228 ft | 5 kts | 224° |
| 2026-05-04 06:00 | 34.79593 | -79.36741 | 229 ft | 14 kts | 226° |
| 2026-05-04 06:01 | 34.79521 | -79.36831 | 230 ft | 16 kts | 225° |
| 2026-05-04 06:01 | 34.79440 | -79.36931 | 231 ft | 18 kts | 226° |
| 2026-05-04 06:03 | 34.80693 | -79.35166 | 1031 ft | 161 kts | 46° |
| 2026-05-04 06:03 | 34.81645 | -79.34370 | 1344 ft | 174 kts | 14° |
| 2026-05-04 06:05 | 34.83318 | -79.41815 | 3565 ft | 146 kts | 265° |
| 2026-05-04 06:05 | 34.83165 | -79.44266 | 4217 ft | 144 kts | 258° |
| 2026-05-04 06:05 | 34.82937 | -79.45434 | 4547 ft | 143 kts | 260° |
| 2026-05-04 06:06 | 34.82916 | -79.46633 | 4897 ft | 142 kts | 277° |
| 2026-05-04 06:06 | 34.83127 | -79.47815 | 5213 ft | 143 kts | 282° |
| 2026-05-04 06:06 | 34.83387 | -79.48988 | 5540 ft | 144 kts | 284° |
| 2026-05-04 06:06 | 34.83657 | -79.50165 | 5869 ft | 144 kts | 285° |
| 2026-05-04 06:07 | 34.83931 | -79.51342 | 6193 ft | 145 kts | 285° |
| 2026-05-04 06:07 | 34.84201 | -79.52509 | 6525 ft | 145 kts | 286° |
| 2026-05-04 06:07 | 34.84476 | -79.53690 | 6843 ft | 145 kts | 286° |
| 2026-05-04 06:07 | 34.84751 | -79.54876 | 7157 ft | 145 kts | 287° |
| 2026-05-04 06:08 | 34.85026 | -79.56057 | 7473 ft | 145 kts | 287° |
| 2026-05-04 06:08 | 34.85299 | -79.57239 | 7794 ft | 145 kts | 287° |
| 2026-05-04 06:08 | 34.85574 | -79.58426 | 8015 ft | 151 kts | 288° |
| 2026-05-04 06:08 | 34.85873 | -79.59708 | 7999 ft | 162 kts | 288° |
| 2026-05-04 06:09 | 34.86185 | -79.61051 | 8004 ft | 167 kts | 287° |
| 2026-05-04 06:09 | 34.86502 | -79.62423 | 8014 ft | 169 kts | 288° |
| 2026-05-04 06:11 | 34.88746 | -79.72140 | 8030 ft | 171 kts | 287° |
| 2026-05-04 06:11 | 34.89066 | -79.73534 | 8036 ft | 171 kts | 288° |
| 2026-05-04 06:13 | 34.91307 | -79.83284 | 8028 ft | 171 kts | 288° |
| 2026-05-04 06:14 | 34.93217 | -79.91630 | 8031 ft | 170 kts | 287° |
| 2026-05-04 06:14 | 34.93536 | -79.93023 | 8031 ft | 170 kts | 287° |
| 2026-05-04 06:15 | 34.93855 | -79.94419 | 8021 ft | 171 kts | 287° |
| 2026-05-04 06:15 | 34.94172 | -79.95811 | 8023 ft | 171 kts | 287° |
| 2026-05-04 06:15 | 34.94491 | -79.97205 | 8022 ft | 171 kts | 287° |
| 2026-05-04 06:15 | 34.94809 | -79.98600 | 8028 ft | 171 kts | 288° |
| 2026-05-04 06:16 | 34.95126 | -79.99994 | 8027 ft | 171 kts | 287° |
| 2026-05-04 06:16 | 34.95440 | -80.01372 | 8022 ft | 171 kts | 287° |
| 2026-05-04 06:16 | 34.95760 | -80.02769 | 8027 ft | 170 kts | 289° |
| 2026-05-04 06:16 | 34.96395 | -80.03978 | 8026 ft | 170 kts | 308° |
| 2026-05-04 06:17 | 34.97028 | -80.05198 | 8017 ft | 170 kts | 296° |
| 2026-05-04 06:17 | 34.97332 | -80.06084 | 8015 ft | 171 kts | 292° |
| 2026-05-04 06:17 | 34.97727 | -80.07447 | 8020 ft | 171 kts | 290° |
| 2026-05-04 06:17 | 34.98243 | -80.09266 | 8026 ft | 171 kts | 291° |
| 2026-05-04 06:18 | 34.98509 | -80.10190 | 8024 ft | 171 kts | 291° |
| 2026-05-04 06:18 | 34.98904 | -80.11557 | 8027 ft | 171 kts | 291° |
| 2026-05-04 06:18 | 34.99293 | -80.12902 | 8028 ft | 170 kts | 291° |
| 2026-05-04 06:20 | 35.02044 | -80.22454 | 8021 ft | 171 kts | 290° |
| 2026-05-04 06:20 | 35.02437 | -80.23820 | 8013 ft | 171 kts | 291° |
| 2026-05-04 06:21 | 35.04010 | -80.29298 | 8018 ft | 171 kts | 290° |
| 2026-05-04 06:21 | 35.04396 | -80.30643 | 8015 ft | 170 kts | 291° |
| 2026-05-04 06:22 | 35.04787 | -80.32008 | 8015 ft | 171 kts | 290° |
| 2026-05-04 06:22 | 35.05181 | -80.33381 | 8018 ft | 170 kts | 290° |
| 2026-05-04 06:25 | 35.10253 | -80.51143 | 7998 ft | 170 kts | 290° |
| 2026-05-04 06:25 | 35.10642 | -80.52514 | 8001 ft | 170 kts | 290° |
| 2026-05-04 06:26 | 35.11031 | -80.53879 | 7998 ft | 170 kts | 290° |
| 2026-05-04 06:26 | 35.11422 | -80.55251 | 7997 ft | 171 kts | 290° |
| 2026-05-04 06:26 | 35.11810 | -80.56620 | 7997 ft | 171 kts | 290° |
| 2026-05-04 06:26 | 35.12199 | -80.57986 | 7811 ft | 174 kts | 290° |
| 2026-05-04 06:27 | 35.13777 | -80.63541 | 6568 ft | 173 kts | 288° |
| 2026-05-04 06:28 | 35.14171 | -80.64927 | 6246 ft | 172 kts | 287° |
| 2026-05-04 06:28 | 35.14559 | -80.66298 | 5913 ft | 170 kts | 287° |
| 2026-05-04 06:28 | 35.14941 | -80.67651 | 5584 ft | 168 kts | 286° |
| 2026-05-04 06:28 | 35.15321 | -80.68993 | 5260 ft | 166 kts | 286° |
| 2026-05-04 06:29 | 35.15697 | -80.70323 | 4932 ft | 164 kts | 285° |
| 2026-05-04 06:29 | 35.16069 | -80.71637 | 4599 ft | 163 kts | 285° |
| 2026-05-04 06:29 | 35.16437 | -80.72942 | 4272 ft | 162 kts | 285° |
| 2026-05-04 06:29 | 35.16800 | -80.74229 | 4022 ft | 159 kts | 284° |
| 2026-05-04 06:30 | 35.17148 | -80.75456 | 4012 ft | 148 kts | 284° |
| 2026-05-04 06:30 | 35.17477 | -80.76626 | 4011 ft | 144 kts | 284° |
| 2026-05-04 06:30 | 35.17800 | -80.77772 | 4010 ft | 142 kts | 284° |
| 2026-05-04 06:30 | 35.18118 | -80.78908 | 4010 ft | 141 kts | 284° |
| 2026-05-04 06:31 | 35.18440 | -80.80041 | 4013 ft | 141 kts | 286° |
| 2026-05-04 06:31 | 35.19181 | -80.80874 | 4019 ft | 157 kts | 331° |
| 2026-05-04 06:31 | 35.20241 | -80.81257 | 4016 ft | 160 kts | 338° |
| 2026-05-04 06:31 | 35.21376 | -80.81346 | 4020 ft | 165 kts | 354° |
| 2026-05-04 06:32 | 35.22513 | -80.81321 | 4018 ft | 166 kts | 354° |
| 2026-05-04 06:33 | 35.30073 | -80.82678 | 3316 ft | 145 kts | 272° |
| 2026-05-04 06:34 | 35.30043 | -80.83882 | 3307 ft | 140 kts | 263° |
| 2026-05-04 06:34 | 35.29971 | -80.85059 | 3306 ft | 138 kts | 262° |
| 2026-05-04 06:34 | 35.29905 | -80.86224 | 3305 ft | 137 kts | 262° |
| 2026-05-04 06:34 | 35.29843 | -80.87383 | 3207 ft | 138 kts | 263° |
| 2026-05-04 06:35 | 35.29780 | -80.88588 | 3021 ft | 144 kts | 263° |
| 2026-05-04 06:36 | 35.27362 | -80.94605 | 2679 ft | 89 kts | 229° |
| 2026-05-04 06:37 | 35.26897 | -80.95090 | 2340 ft | 88 kts | 217° |
| 2026-05-04 06:37 | 35.26347 | -80.95410 | 2056 ft | 88 kts | 203° |
| 2026-05-04 06:37 | 35.25759 | -80.95537 | 1843 ft | 84 kts | 193° |
| 2026-05-04 06:37 | 35.25195 | -80.95527 | 1623 ft | 80 kts | 180° |
| 2026-05-04 06:38 | 35.24643 | -80.95484 | 1446 ft | 79 kts | 182° |
| 2026-05-04 06:38 | 35.24023 | -80.95442 | 1317 ft | 96 kts | 176° |
| 2026-05-04 06:40 | 35.21860 | -80.95107 | 716 ft | 0 kts | 85° |
| 2026-05-04 06:44 | 35.21876 | -80.95073 | 718 ft | 9 kts | 37° |
| 2026-05-04 06:44 | 35.21960 | -80.95054 | 715 ft | 16 kts | 359° |
| 2026-05-04 06:44 | 35.22082 | -80.95062 | 714 ft | 20 kts | 358° |
| 2026-05-04 06:45 | 35.22229 | -80.95069 | 713 ft | 22 kts | 356° |
| 2026-05-04 06:45 | 35.22331 | -80.95134 | 712 ft | 18 kts | 281° |
| 2026-05-04 06:45 | 35.22296 | -80.95251 | 713 ft | 15 kts | 202° |
| 2026-05-04 06:45 | 35.21993 | -80.95252 | 715 ft | 82 kts | 175° |
| 2026-05-04 06:46 | 35.21284 | -80.95196 | 838 ft | 113 kts | 177° |
| 2026-05-04 06:46 | 35.20456 | -80.95111 | 1061 ft | 123 kts | 175° |
| 2026-05-04 06:46 | 35.19609 | -80.94977 | 1370 ft | 124 kts | 166° |
| 2026-05-04 06:46 | 35.18821 | -80.94612 | 1692 ft | 121 kts | 173° |
| 2026-05-04 06:48 | 35.12685 | -80.93307 | 3818 ft | 144 kts | 179° |
| 2026-05-04 06:48 | 35.11690 | -80.93107 | 4110 ft | 145 kts | 179° |
| 2026-05-04 06:49 | 35.10694 | -80.92910 | 4404 ft | 145 kts | 179° |
| 2026-05-04 06:50 | 35.03303 | -80.91446 | 5992 ft | 179 kts | 175° |
| 2026-05-04 06:51 | 35.02058 | -80.91199 | 5988 ft | 182 kts | 175° |
| 2026-05-04 06:51 | 35.00801 | -80.90947 | 5999 ft | 184 kts | 176° |
| 2026-05-04 06:51 | 34.99536 | -80.90698 | 5999 ft | 185 kts | 176° |
| 2026-05-04 06:51 | 34.98262 | -80.90444 | 5998 ft | 186 kts | 176° |
| 2026-05-04 06:52 | 34.96985 | -80.90190 | 6001 ft | 186 kts | 176° |
| 2026-05-04 06:52 | 34.95708 | -80.89938 | 6000 ft | 186 kts | 176° |
| 2026-05-04 06:52 | 34.94432 | -80.89684 | 6002 ft | 186 kts | 176° |
| 2026-05-04 06:52 | 34.93169 | -80.89435 | 6001 ft | 186 kts | 176° |
| 2026-05-04 06:53 | 34.91890 | -80.89182 | 6002 ft | 186 kts | 176° |
| 2026-05-04 06:53 | 34.90612 | -80.88929 | 6001 ft | 186 kts | 176° |
| 2026-05-04 06:53 | 34.89331 | -80.88676 | 5997 ft | 186 kts | 175° |
| 2026-05-04 06:53 | 34.88046 | -80.88422 | 6001 ft | 187 kts | 175° |
| 2026-05-04 06:54 | 34.86763 | -80.88168 | 6003 ft | 187 kts | 175° |
| 2026-05-04 06:54 | 34.85494 | -80.87918 | 6004 ft | 187 kts | 175° |
| 2026-05-04 06:54 | 34.84211 | -80.87664 | 6004 ft | 187 kts | 175° |
| 2026-05-04 06:54 | 34.82928 | -80.87411 | 6000 ft | 187 kts | 175° |
| 2026-05-04 06:55 | 34.81643 | -80.87157 | 6008 ft | 187 kts | 175° |
| 2026-05-04 06:55 | 34.80356 | -80.86903 | 6008 ft | 187 kts | 175° |
| 2026-05-04 06:55 | 34.79071 | -80.86650 | 6005 ft | 187 kts | 175° |
| 2026-05-04 06:55 | 34.77785 | -80.86396 | 6009 ft | 187 kts | 175° |
| 2026-05-04 06:56 | 34.76496 | -80.86143 | 6011 ft | 187 kts | 175° |
| 2026-05-04 06:57 | 34.67506 | -80.84373 | 6011 ft | 187 kts | 175° |
| 2026-05-04 06:58 | 34.66222 | -80.84120 | 6014 ft | 187 kts | 175° |
| 2026-05-04 06:58 | 34.64939 | -80.83852 | 6015 ft | 187 kts | 175° |
| 2026-05-04 06:58 | 34.63652 | -80.83578 | 6008 ft | 188 kts | 174° |
| 2026-05-04 06:58 | 34.62359 | -80.83310 | 6008 ft | 189 kts | 174° |
| 2026-05-04 06:59 | 34.61063 | -80.83043 | 6010 ft | 189 kts | 174° |
| 2026-05-04 06:59 | 34.59781 | -80.82777 | 6010 ft | 189 kts | 174° |
| 2026-05-04 06:59 | 34.58477 | -80.82506 | 6009 ft | 189 kts | 174° |
| 2026-05-04 06:59 | 34.57179 | -80.82237 | 6009 ft | 189 kts | 174° |
| 2026-05-04 07:01 | 34.48093 | -80.80353 | 6017 ft | 190 kts | 174° |
| 2026-05-04 07:01 | 34.46792 | -80.80084 | 6015 ft | 189 kts | 174° |
| 2026-05-04 07:02 | 34.45497 | -80.79815 | 6013 ft | 189 kts | 174° |
| 2026-05-04 07:02 | 34.44201 | -80.79548 | 6012 ft | 189 kts | 174° |
| 2026-05-04 07:02 | 34.42902 | -80.79279 | 6015 ft | 189 kts | 174° |
| 2026-05-04 07:02 | 34.41605 | -80.79011 | 6019 ft | 189 kts | 174° |
| 2026-05-04 07:03 | 34.40310 | -80.78743 | 6021 ft | 189 kts | 174° |
| 2026-05-04 07:03 | 34.39011 | -80.78474 | 6020 ft | 189 kts | 174° |
| 2026-05-04 07:03 | 34.37709 | -80.78205 | 6019 ft | 190 kts | 173° |
| 2026-05-04 07:03 | 34.36421 | -80.78049 | 6024 ft | 188 kts | 187° |
| 2026-05-04 07:04 | 34.35170 | -80.78443 | 6022 ft | 185 kts | 208° |
| 2026-05-04 07:04 | 34.34081 | -80.79263 | 6023 ft | 184 kts | 217° |
| 2026-05-04 07:04 | 34.33013 | -80.80119 | 6019 ft | 184 kts | 216° |
| 2026-05-04 07:04 | 34.31942 | -80.80969 | 6020 ft | 184 kts | 216° |
| 2026-05-04 07:05 | 34.31229 | -80.81534 | 6023 ft | 184 kts | 216° |
| 2026-05-04 07:05 | 34.29807 | -80.82659 | 6022 ft | 184 kts | 216° |
| 2026-05-04 07:05 | 34.28732 | -80.83511 | 6020 ft | 184 kts | 216° |
| 2026-05-04 07:05 | 34.27659 | -80.84360 | 6022 ft | 184 kts | 216° |
| 2026-05-04 07:06 | 34.25878 | -80.85770 | 6019 ft | 184 kts | 216° |
| 2026-05-04 07:06 | 34.24805 | -80.86618 | 6019 ft | 184 kts | 216° |
| 2026-05-04 07:06 | 34.23733 | -80.87466 | 6020 ft | 184 kts | 216° |
| 2026-05-04 07:07 | 34.22659 | -80.88316 | 6019 ft | 184 kts | 216° |
| 2026-05-04 07:08 | 34.15177 | -80.94223 | 5977 ft | 184 kts | 216° |
| 2026-05-04 07:09 | 34.14136 | -80.95048 | 5523 ft | 172 kts | 216° |
| 2026-05-04 07:09 | 34.13169 | -80.95812 | 5106 ft | 165 kts | 217° |
| 2026-05-04 07:09 | 34.12227 | -80.96556 | 4676 ft | 159 kts | 217° |
| 2026-05-04 07:09 | 34.11240 | -80.97116 | 4231 ft | 161 kts | 193° |
| 2026-05-04 07:10 | 34.10122 | -80.97160 | 3931 ft | 153 kts | 185° |
| 2026-05-04 07:10 | 34.09136 | -80.97227 | 3928 ft | 133 kts | 192° |
| 2026-05-04 07:12 | 34.02253 | -80.98068 | 3041 ft | 170 kts | 192° |
| 2026-05-04 07:12 | 34.01106 | -80.98225 | 3001 ft | 165 kts | 192° |
| 2026-05-04 07:12 | 33.99937 | -80.98390 | 2748 ft | 171 kts | 192° |
| 2026-05-04 07:12 | 33.98746 | -80.98562 | 2539 ft | 171 kts | 192° |
| 2026-05-04 07:13 | 33.97607 | -80.98727 | 2533 ft | 163 kts | 192° |
| 2026-05-04 07:13 | 33.96495 | -80.98882 | 2533 ft | 160 kts | 192° |
| 2026-05-04 07:13 | 33.95397 | -80.99072 | 2535 ft | 157 kts | 197° |
| 2026-05-04 07:14 | 33.92751 | -81.01723 | 2554 ft | 112 kts | 257° |
| 2026-05-04 07:14 | 33.92670 | -81.02619 | 2547 ft | 98 kts | 265° |
| 2026-05-04 07:15 | 33.92699 | -81.03389 | 2474 ft | 90 kts | 269° |
| 2026-05-04 07:15 | 33.92737 | -81.04123 | 2407 ft | 87 kts | 270° |
| 2026-05-04 07:15 | 33.92799 | -81.04853 | 2286 ft | 88 kts | 270° |
| 2026-05-04 07:15 | 33.92869 | -81.05586 | 2156 ft | 88 kts | 271° |
| 2026-05-04 07:16 | 33.92970 | -81.06318 | 2009 ft | 90 kts | 273° |
| 2026-05-04 07:16 | 33.93078 | -81.07059 | 1815 ft | 89 kts | 274° |
| 2026-05-04 07:16 | 33.93199 | -81.07788 | 1571 ft | 89 kts | 275° |
| 2026-05-04 07:16 | 33.93324 | -81.08522 | 1309 ft | 90 kts | 277° |
| 2026-05-04 07:17 | 33.93457 | -81.09259 | 987 ft | 89 kts | 279° |
| 2026-05-04 07:17 | 33.93594 | -81.09959 | 695 ft | 82 kts | 281° |
| 2026-05-04 07:17 | 33.93734 | -81.10608 | 468 ft | 80 kts | 279° |
| 2026-05-04 07:17 | 33.93863 | -81.11245 | 276 ft | 77 kts | 283° |
| 2026-05-04 07:18 | 33.93984 | -81.11807 | 229 ft | 53 kts | 283° |
| 2026-05-04 07:18 | 33.94064 | -81.12157 | 226 ft | 38 kts | 287° |
| 2026-05-04 07:18 | 33.94163 | -81.12406 | 226 ft | 31 kts | 307° |
| 2026-05-04 07:18 | 33.94256 | -81.12523 | 225 ft | 0 kts | 316° |
| 2026-05-04 07:25 | 33.94257 | -81.12524 | 225 ft | 1 kts | 316° |
| 2026-05-04 07:26 | 33.94190 | -81.11832 | 229 ft | 22 kts | 104° |
| 2026-05-04 07:27 | 33.94149 | -81.11653 | 230 ft | 22 kts | 105° |
| 2026-05-04 07:27 | 33.94097 | -81.11569 | 231 ft | 13 kts | 178° |
| 2026-05-04 07:27 | 33.94008 | -81.11592 | 232 ft | 14 kts | 195° |
| 2026-05-04 07:27 | 33.93968 | -81.11700 | 231 ft | 34 kts | 282° |
| 2026-05-04 07:28 | 33.94088 | -81.12297 | 371 ft | 98 kts | 282° |
| 2026-05-04 07:28 | 33.94267 | -81.13235 | 650 ft | 123 kts | 282° |
| 2026-05-04 07:28 | 33.94450 | -81.14289 | 1033 ft | 129 kts | 284° |
| 2026-05-04 07:28 | 33.94907 | -81.15210 | 1513 ft | 135 kts | 307° |
| 2026-05-04 07:29 | 33.95661 | -81.15901 | 1929 ft | 140 kts | 322° |
| 2026-05-04 07:29 | 33.96564 | -81.16387 | 2299 ft | 147 kts | 344° |
| 2026-05-04 07:29 | 33.97581 | -81.16590 | 2675 ft | 148 kts | 345° |
| 2026-05-04 07:29 | 33.98600 | -81.16775 | 3050 ft | 148 kts | 346° |
| 2026-05-04 07:30 | 33.99619 | -81.16878 | 3421 ft | 148 kts | 349° |
| 2026-05-04 07:30 | 34.00598 | -81.17162 | 3779 ft | 142 kts | 328° |
| 2026-05-04 07:30 | 34.01417 | -81.17796 | 4153 ft | 139 kts | 320° |
| 2026-05-04 07:30 | 34.02197 | -81.18476 | 4536 ft | 138 kts | 319° |
| 2026-05-04 07:31 | 34.02971 | -81.19163 | 4916 ft | 138 kts | 320° |
| 2026-05-04 07:31 | 34.03743 | -81.19847 | 5287 ft | 138 kts | 321° |
| 2026-05-04 07:33 | 34.09117 | -81.24621 | 7876 ft | 135 kts | 324° |
| 2026-05-04 07:33 | 34.09903 | -81.25322 | 8013 ft | 149 kts | 325° |
| 2026-05-04 07:33 | 34.10781 | -81.26098 | 8016 ft | 162 kts | 324° |
| 2026-05-04 07:33 | 34.11704 | -81.26918 | 8015 ft | 167 kts | 324° |
| 2026-05-04 07:34 | 34.12646 | -81.27757 | 8016 ft | 169 kts | 324° |
| 2026-05-04 07:34 | 34.13596 | -81.28602 | 8012 ft | 170 kts | 324° |
| 2026-05-04 07:34 | 34.14536 | -81.29441 | 8012 ft | 171 kts | 324° |
| 2026-05-04 07:34 | 34.15497 | -81.30295 | 8013 ft | 171 kts | 324° |
| 2026-05-04 07:35 | 34.16455 | -81.31150 | 8013 ft | 171 kts | 324° |
| 2026-05-04 07:35 | 34.17415 | -81.32004 | 8017 ft | 171 kts | 323° |
| 2026-05-04 07:35 | 34.18370 | -81.32856 | 8016 ft | 170 kts | 323° |
| 2026-05-04 07:35 | 34.19323 | -81.33707 | 8017 ft | 170 kts | 323° |
| 2026-05-04 07:36 | 34.20275 | -81.34556 | 8015 ft | 170 kts | 323° |
| 2026-05-04 07:36 | 34.21213 | -81.35393 | 8015 ft | 170 kts | 323° |
| 2026-05-04 07:38 | 34.27865 | -81.41337 | 8017 ft | 170 kts | 323° |
| 2026-05-04 07:38 | 34.28819 | -81.42189 | 8016 ft | 170 kts | 323° |
| 2026-05-04 07:38 | 34.29770 | -81.43040 | 8017 ft | 170 kts | 323° |
| 2026-05-04 07:38 | 34.30708 | -81.43879 | 8017 ft | 170 kts | 323° |
| 2026-05-04 07:39 | 34.31657 | -81.44729 | 8016 ft | 170 kts | 323° |
| 2026-05-04 07:39 | 34.32607 | -81.45580 | 8016 ft | 170 kts | 323° |
| 2026-05-04 07:39 | 34.33557 | -81.46430 | 8016 ft | 170 kts | 323° |
| 2026-05-04 07:39 | 34.34506 | -81.47281 | 8017 ft | 170 kts | 323° |
| 2026-05-04 07:40 | 34.35454 | -81.48130 | 8015 ft | 170 kts | 323° |
| 2026-05-04 07:40 | 34.36404 | -81.48982 | 8015 ft | 170 kts | 323° |
| 2026-05-04 07:40 | 34.37353 | -81.49834 | 8016 ft | 170 kts | 323° |
| 2026-05-04 07:40 | 34.38304 | -81.50686 | 8014 ft | 170 kts | 323° |
| 2026-05-04 07:41 | 34.39253 | -81.51538 | 8015 ft | 170 kts | 323° |
| 2026-05-04 07:41 | 34.40193 | -81.52380 | 8016 ft | 170 kts | 323° |
| 2026-05-04 07:41 | 34.41142 | -81.53234 | 8016 ft | 170 kts | 323° |
| 2026-05-04 07:41 | 34.42097 | -81.54090 | 8016 ft | 170 kts | 323° |
| 2026-05-04 07:42 | 34.43046 | -81.54944 | 8011 ft | 170 kts | 323° |
| 2026-05-04 07:42 | 34.43997 | -81.55798 | 8011 ft | 170 kts | 323° |
| 2026-05-04 07:42 | 34.44943 | -81.56647 | 8039 ft | 169 kts | 322° |
| 2026-05-04 07:42 | 34.45875 | -81.57486 | 8016 ft | 169 kts | 322° |
| 2026-05-04 07:43 | 34.46817 | -81.58332 | 8015 ft | 168 kts | 322° |
| 2026-05-04 07:43 | 34.47758 | -81.59180 | 8016 ft | 168 kts | 322° |
| 2026-05-04 07:43 | 34.48702 | -81.60029 | 8016 ft | 168 kts | 322° |
| 2026-05-04 07:43 | 34.49643 | -81.60876 | 8016 ft | 168 kts | 322° |
| 2026-05-04 07:44 | 34.50583 | -81.61723 | 8013 ft | 168 kts | 322° |
| 2026-05-04 07:44 | 34.51525 | -81.62570 | 8014 ft | 168 kts | 322° |
| 2026-05-04 07:44 | 34.52479 | -81.63396 | 8016 ft | 169 kts | 328° |
| 2026-05-04 07:44 | 34.53551 | -81.63945 | 8016 ft | 171 kts | 343° |
| 2026-05-04 07:45 | 34.54735 | -81.64128 | 8014 ft | 173 kts | 358° |
| 2026-05-04 07:45 | 34.55934 | -81.63916 | 8016 ft | 176 kts | 13° |
| 2026-05-04 07:45 | 34.57066 | -81.63320 | 8016 ft | 179 kts | 28° |
| 2026-05-04 07:45 | 34.58048 | -81.62375 | 8016 ft | 182 kts | 43° |
| 2026-05-04 07:46 | 34.58662 | -81.61032 | 8010 ft | 188 kts | 78° |
| 2026-05-04 07:46 | 34.58550 | -81.59451 | 8009 ft | 190 kts | 102° |
| 2026-05-04 07:46 | 34.58234 | -81.57896 | 8012 ft | 190 kts | 104° |
| 2026-05-04 07:46 | 34.57906 | -81.56344 | 8013 ft | 190 kts | 104° |
| 2026-05-04 07:47 | 34.57576 | -81.54790 | 8009 ft | 190 kts | 104° |
| 2026-05-04 07:47 | 34.57246 | -81.53238 | 8009 ft | 190 kts | 104° |
| 2026-05-04 07:47 | 34.56982 | -81.51666 | 8004 ft | 190 kts | 96° |
| 2026-05-04 07:49 | 34.61412 | -81.42852 | 7995 ft | 180 kts | 31° |
| 2026-05-04 07:49 | 34.62447 | -81.42002 | 7995 ft | 180 kts | 31° |
| 2026-05-04 07:49 | 34.63484 | -81.41151 | 7996 ft | 180 kts | 31° |
| 2026-05-04 07:50 | 34.64522 | -81.40299 | 7997 ft | 180 kts | 31° |
| 2026-05-04 07:50 | 34.65558 | -81.39449 | 7997 ft | 180 kts | 31° |
| 2026-05-04 07:50 | 34.66595 | -81.38598 | 8006 ft | 180 kts | 31° |
| 2026-05-04 07:50 | 34.67632 | -81.37745 | 7998 ft | 180 kts | 31° |
| 2026-05-04 07:51 | 34.68656 | -81.36905 | 8006 ft | 180 kts | 30° |
| 2026-05-04 07:51 | 34.69695 | -81.36050 | 8014 ft | 181 kts | 30° |
| 2026-05-04 07:51 | 34.70738 | -81.35193 | 8006 ft | 181 kts | 30° |
| 2026-05-04 07:51 | 34.71783 | -81.34335 | 8006 ft | 181 kts | 30° |
| 2026-05-04 07:52 | 34.72828 | -81.33474 | 8004 ft | 181 kts | 30° |
| 2026-05-04 07:52 | 34.73874 | -81.32614 | 8006 ft | 181 kts | 30° |
| 2026-05-04 07:52 | 34.74908 | -81.31763 | 8007 ft | 181 kts | 30° |
| 2026-05-04 07:52 | 34.75954 | -81.30902 | 8006 ft | 181 kts | 30° |
| 2026-05-04 07:53 | 34.77000 | -81.30040 | 8006 ft | 182 kts | 30° |
| 2026-05-04 07:54 | 34.84361 | -81.24103 | 8006 ft | 181 kts | 28° |
| 2026-05-04 07:55 | 34.85430 | -81.23295 | 8014 ft | 181 kts | 28° |
| 2026-05-04 07:55 | 34.86501 | -81.22493 | 8009 ft | 181 kts | 28° |
| 2026-05-04 07:55 | 34.87227 | -81.21952 | 8011 ft | 181 kts | 28° |
| 2026-05-04 07:55 | 34.88300 | -81.21151 | 8007 ft | 181 kts | 28° |
| 2026-05-04 07:56 | 34.89386 | -81.20344 | 7800 ft | 186 kts | 28° |
| 2026-05-04 07:56 | 34.90485 | -81.19520 | 7485 ft | 188 kts | 29° |
| 2026-05-04 07:56 | 34.91602 | -81.18684 | 7169 ft | 188 kts | 29° |
| 2026-05-04 07:56 | 34.92718 | -81.17850 | 6861 ft | 188 kts | 29° |
| 2026-05-04 07:57 | 34.93840 | -81.17013 | 6549 ft | 189 kts | 29° |
| 2026-05-04 07:57 | 34.94968 | -81.16169 | 6221 ft | 190 kts | 29° |
| 2026-05-04 07:57 | 34.96101 | -81.15321 | 5890 ft | 191 kts | 29° |
| 2026-05-04 07:57 | 34.97224 | -81.14482 | 5567 ft | 192 kts | 29° |
| 2026-05-04 07:58 | 34.98365 | -81.13627 | 5243 ft | 193 kts | 29° |
| 2026-05-04 07:58 | 34.99508 | -81.12772 | 5008 ft | 190 kts | 29° |
| 2026-05-04 07:58 | 35.00597 | -81.11955 | 5004 ft | 180 kts | 29° |
| 2026-05-04 07:58 | 35.01648 | -81.11170 | 5003 ft | 175 kts | 28° |
| 2026-05-04 07:59 | 35.02680 | -81.10397 | 4999 ft | 173 kts | 28° |
| 2026-05-04 07:59 | 35.03703 | -81.09632 | 4999 ft | 172 kts | 28° |
| 2026-05-04 07:59 | 35.04728 | -81.08881 | 4995 ft | 171 kts | 25° |
| 2026-05-04 07:59 | 35.05860 | -81.08635 | 4987 ft | 164 kts | 356° |
| 2026-05-04 08:00 | 35.07000 | -81.08627 | 4993 ft | 163 kts | 354° |
| 2026-05-04 08:00 | 35.08137 | -81.08622 | 4994 ft | 163 kts | 355° |
| 2026-05-04 08:00 | 35.09279 | -81.08618 | 4995 ft | 165 kts | 354° |
| 2026-05-04 08:02 | 35.17993 | -81.08695 | 4997 ft | 182 kts | 354° |
| 2026-05-04 08:02 | 35.19262 | -81.08700 | 4998 ft | 182 kts | 355° |
| 2026-05-04 08:02 | 35.20532 | -81.08700 | 4999 ft | 182 kts | 355° |
| 2026-05-04 08:03 | 35.21799 | -81.08702 | 4999 ft | 182 kts | 355° |
| 2026-05-04 08:03 | 35.23067 | -81.08702 | 4996 ft | 183 kts | 354° |
| 2026-05-04 08:03 | 35.24335 | -81.08703 | 4998 ft | 182 kts | 355° |
| 2026-05-04 08:03 | 35.25604 | -81.08704 | 4997 ft | 182 kts | 354° |
| 2026-05-04 08:04 | 35.26873 | -81.08707 | 4759 ft | 187 kts | 355° |
| 2026-05-04 08:04 | 35.28181 | -81.08709 | 4453 ft | 187 kts | 354° |
| 2026-05-04 08:04 | 35.29474 | -81.08700 | 4150 ft | 183 kts | 355° |
| 2026-05-04 08:04 | 35.30738 | -81.08563 | 3866 ft | 186 kts | 16° |
| 2026-05-04 08:05 | 35.31667 | -81.07461 | 3647 ft | 188 kts | 62° |
| 2026-05-04 08:05 | 35.32066 | -81.05986 | 3551 ft | 182 kts | 81° |
| 2026-05-04 08:05 | 35.32309 | -81.04500 | 3553 ft | 173 kts | 82° |
| 2026-05-04 08:05 | 35.32538 | -81.03100 | 3605 ft | 167 kts | 81° |
| 2026-05-04 08:06 | 35.32752 | -81.01704 | 3629 ft | 165 kts | 83° |
| 2026-05-04 08:06 | 35.32933 | -81.00370 | 3687 ft | 153 kts | 83° |
| 2026-05-04 08:06 | 35.33072 | -80.99111 | 3744 ft | 146 kts | 94° |
| 2026-05-04 08:06 | 35.32895 | -80.97930 | 3792 ft | 140 kts | 121° |
| 2026-05-04 08:08 | 35.28193 | -80.95680 | 3703 ft | 94 kts | 187° |
| 2026-05-04 08:08 | 35.27550 | -80.95633 | 3575 ft | 91 kts | 189° |
| 2026-05-04 08:10 | 35.22814 | -80.95339 | 926 ft | 87 kts | 176° |
| 2026-05-04 08:11 | 35.22255 | -80.95280 | 723 ft | 74 kts | 175° |
| 2026-05-04 08:11 | 35.21859 | -80.95099 | 716 ft | 0 kts | 78° |